createdAt,value
2022-10-20T00:01:29.819Z,95834.44
2022-10-20T00:03:58.813Z,95836.56
2022-10-20T00:06:30.951Z,95836.61
2022-10-20T00:09:02.414Z,95839.24
2022-10-20T00:11:31.409Z,95833.19
2022-10-20T00:14:02.587Z,95831.63
2022-10-20T00:16:33.268Z,95835.73
2022-10-20T00:19:02.069Z,95830.00
2022-10-20T00:21:31.473Z,95835.91
2022-10-20T00:24:04.431Z,95837.64
2022-10-20T00:26:33.840Z,95840.31
2022-10-20T00:29:06.081Z,95843.55
2022-10-20T00:31:34.837Z,95838.98
2022-10-20T00:34:03.586Z,95826.53
2022-10-20T00:36:32.309Z,95821.90
2022-10-20T00:39:03.641Z,95813.80
2022-10-20T00:41:33.148Z,95831.81
2022-10-20T00:44:04.836Z,95820.72
2022-10-20T00:46:42.613Z,95808.80
2022-10-20T00:49:23.108Z,95815.69
2022-10-20T00:51:55.078Z,95818.75
2022-10-20T00:54:26.787Z,95813.72
2022-10-20T00:56:58.214Z,95820.77
2022-10-20T00:59:29.840Z,95823.84
2022-10-20T01:02:00.730Z,95817.66
2022-10-20T01:04:31.882Z,95818.31
2022-10-20T01:07:02.179Z,95820.41
2022-10-20T01:09:32.909Z,95825.13
2022-10-20T01:12:22.636Z,95824.98
2022-10-20T01:15:12.326Z,95823.44
2022-10-20T01:17:53.389Z,95824.78
2022-10-20T01:20:41.448Z,95824.36
2022-10-20T01:23:24.857Z,95822.81
2022-10-20T01:25:59.904Z,95824.48
2022-10-20T01:28:50.985Z,95822.34
2022-10-20T01:31:30.405Z,95821.72
2022-10-20T01:34:01.758Z,95818.55
2022-10-20T01:36:53.338Z,95823.14
2022-10-20T01:39:33.724Z,95815.45
2022-10-20T01:42:13.940Z,95816.48
2022-10-20T01:44:44.613Z,95819.05
2022-10-20T01:47:18.406Z,95816.04
2022-10-20T01:49:48.227Z,95822.95
2022-10-20T01:52:17.329Z,95821.28
2022-10-20T01:54:49.245Z,95824.67
2022-10-20T01:57:51.250Z,95826.25
2022-10-20T02:00:41.125Z,95827.78
2022-10-20T02:03:47.746Z,95827.77
2022-10-20T02:06:32.781Z,95829.00
2022-10-20T02:09:10.183Z,95844.25
2022-10-20T02:12:21.216Z,95836.70
2022-10-20T02:15:28.016Z,95839.98
2022-10-20T02:18:10.239Z,95843.52
2022-10-20T02:20:49.027Z,95844.84
2022-10-20T02:23:38.202Z,95845.12
2022-10-20T02:26:23.970Z,95846.66
2022-10-20T02:29:24.843Z,95850.02
2022-10-20T02:31:35.946Z,95849.55
2022-10-20T02:34:14.630Z,95848.22
2022-10-20T02:36:59.055Z,95847.67
2022-10-20T02:39:49.984Z,95849.93
2022-10-20T02:42:37.323Z,95851.69
2022-10-20T02:45:31.471Z,95855.05
2022-10-20T02:51:23.113Z,95864.33
2022-10-20T02:54:23.525Z,95861.58
2022-10-20T02:57:14.062Z,95869.53
2022-10-20T03:00:18.059Z,95870.11
2022-10-20T03:03:01.015Z,95867.08
2022-10-20T03:08:41.926Z,95867.80
2022-10-20T03:11:42.976Z,95873.12
2022-10-20T03:17:21.589Z,95873.53
2022-10-20T03:20:11.264Z,95882.86
2022-10-20T03:22:47.494Z,95879.73
2022-10-20T03:25:56.092Z,95882.34
2022-10-20T03:28:53.279Z,95881.95
2022-10-20T03:33:59.992Z,95883.89
2022-10-20T03:39:23.550Z,95884.20
2022-10-20T03:41:55.485Z,95882.66
2022-10-20T03:44:32.507Z,95886.56
2022-10-20T03:47:28.050Z,95896.39
2022-10-20T03:50:32.918Z,95895.06
2022-10-20T03:53:14.413Z,95900.66
2022-10-20T03:55:49.337Z,95901.97
2022-10-20T03:58:36.543Z,95906.81
2022-10-20T04:01:18.276Z,95905.19
2022-10-20T04:03:47.417Z,95903.06
2022-10-20T04:07:07.763Z,95904.61
2022-10-20T04:13:37.006Z,95902.53
2022-10-20T04:19:35.694Z,95912.72
2022-10-20T04:22:01.686Z,95893.06
2022-10-20T04:34:54.459Z,95909.72
2022-10-20T04:37:23.558Z,95911.42
2022-10-20T04:40:01.611Z,95913.88
2022-10-20T04:42:34.360Z,95911.80
2022-10-20T04:45:24.169Z,95915.03
2022-10-20T04:47:58.488Z,95916.78
2022-10-20T04:50:34.829Z,95915.23
2022-10-20T04:53:23.725Z,95919.38
2022-10-20T04:55:57.105Z,95925.89
2022-10-20T04:58:38.364Z,95933.00
2022-10-20T05:01:31.772Z,95923.47
2022-10-20T05:04:11.766Z,95916.74
2022-10-20T05:06:51.346Z,95935.08
2022-10-20T05:09:45.138Z,95937.42
2022-10-20T05:12:26.055Z,95938.48
2022-10-20T05:15:11.388Z,95940.44
2022-10-20T05:18:09.185Z,95941.55
2022-10-20T05:23:53.754Z,95948.56
2022-10-20T05:27:59.616Z,95964.68
2022-10-20T05:29:07.109Z,95960.89
2022-10-20T05:34:49.648Z,95969.94
2022-10-20T05:40:07.800Z,95985.00
2022-10-20T05:42:45.079Z,95983.56
2022-10-20T05:45:33.963Z,95991.30
2022-10-20T06:03:56.971Z,96016.63
2022-10-20T06:03:57.889Z,96025.00
2022-10-20T06:06:13.849Z,96031.41
2022-10-20T06:09:15.045Z,96032.09
2022-10-20T06:31:19.567Z,96066.96
2022-10-20T06:33:48.744Z,96076.81
2022-10-20T06:36:18.499Z,96080.25
2022-10-20T06:38:47.748Z,96076.59
2022-10-20T06:41:18.625Z,96072.38
2022-10-20T06:43:47.458Z,96074.78
2022-10-20T06:46:44.371Z,96078.56
2022-10-20T06:48:50.036Z,96077.09
2022-10-20T06:51:22.899Z,96076.55
2022-10-20T06:53:52.536Z,96074.28
2022-10-20T06:56:23.655Z,96081.59
2022-10-20T06:58:54.753Z,96083.93
2022-10-20T07:01:26.325Z,96084.96
2022-10-20T07:03:58.031Z,96089.69
2022-10-20T07:06:31.921Z,96086.77
2022-10-20T07:09:01.093Z,96091.03
2022-10-20T07:11:33.808Z,96090.86
2022-10-20T07:14:03.347Z,96098.48
2022-10-20T07:16:34.429Z,96097.34
2022-10-20T07:19:07.483Z,96099.81
2022-10-20T07:21:38.378Z,96096.37
2022-10-20T07:24:09.583Z,96095.23
2022-10-20T07:26:40.634Z,96095.22
2022-10-20T07:29:09.730Z,96097.12
2022-10-20T07:31:45.852Z,96098.48
2022-10-20T07:34:31.734Z,96091.45
2022-10-20T07:36:47.442Z,96093.42
2022-10-20T07:39:19.596Z,96099.63
2022-10-20T07:41:48.515Z,96101.20
2022-10-20T07:44:17.942Z,96100.56
2022-10-20T07:46:46.762Z,96103.28
2022-10-20T07:51:49.140Z,96091.94
2022-10-20T07:54:17.888Z,96088.55
2022-10-20T07:56:57.524Z,96084.91
2022-10-20T07:59:26.456Z,96086.20
2022-10-20T08:01:56.280Z,96083.30
2022-10-20T08:04:25.681Z,96078.69
2022-10-20T08:06:54.484Z,96081.13
2022-10-20T08:09:23.232Z,96088.57
2022-10-20T08:11:56.904Z,96089.56
2022-10-20T08:14:31.356Z,96084.23
2022-10-20T08:17:00.568Z,96096.36
2022-10-20T08:22:39.703Z,96089.48
2022-10-20T08:25:10.507Z,96084.79
2022-10-20T08:27:40.576Z,96084.37
2022-10-20T08:33:04.936Z,96075.69
2022-10-20T08:35:33.675Z,96076.39
2022-10-20T08:38:10.030Z,96085.08
2022-10-20T08:40:40.704Z,96075.23
2022-10-20T08:43:20.061Z,96076.37
2022-10-20T08:45:48.795Z,96077.39
2022-10-20T08:48:23.431Z,96077.83
2022-10-20T08:50:56.837Z,96070.77
2022-10-20T08:53:28.179Z,96070.34
2022-10-20T08:55:59.142Z,96072.42
2022-10-20T08:58:27.811Z,96062.42
2022-10-20T09:01:04.003Z,96067.67
2022-10-20T09:03:34.180Z,96066.07
2022-10-20T09:06:05.780Z,96065.20
2022-10-20T09:08:37.831Z,96070.53
2022-10-20T09:11:09.611Z,96080.02
2022-10-20T09:13:38.965Z,96069.28
2022-10-20T09:16:14.944Z,96073.26
2022-10-20T09:18:40.918Z,96075.76
2022-10-20T09:21:12.568Z,96074.50
2022-10-20T09:23:44.369Z,96072.73
2022-10-20T09:26:30.802Z,96080.75
2022-10-20T09:29:12.058Z,96081.15
2022-10-20T09:31:26.320Z,96080.54
2022-10-20T09:33:55.008Z,96073.16
2022-10-20T09:36:26.148Z,96071.48
2022-10-20T09:38:58.964Z,96070.06
2022-10-20T09:41:36.724Z,96063.27
2022-10-20T09:44:25.924Z,96066.32
2022-10-20T09:46:56.452Z,96076.05
2022-10-20T09:49:33.931Z,96073.39
2022-10-20T09:52:05.415Z,96061.88
2022-10-20T09:54:35.550Z,96062.12
2022-10-20T09:57:12.134Z,96055.73
2022-10-20T09:59:43.299Z,96052.94
2022-10-20T10:02:26.874Z,96056.62
2022-10-20T10:04:58.923Z,96056.82
2022-10-20T10:07:32.305Z,96057.34
2022-10-20T10:10:05.713Z,96052.23
2022-10-20T10:12:38.296Z,96050.31
2022-10-20T10:15:10.204Z,96050.22
2022-10-20T10:17:44.548Z,96045.03
2022-10-20T10:20:17.885Z,96042.16
2022-10-20T10:22:46.638Z,96044.84
2022-10-20T10:25:20.931Z,96036.34
2022-10-20T10:28:03.020Z,96034.47
2022-10-20T10:30:34.664Z,96030.66
2022-10-20T10:33:04.998Z,96030.77
2022-10-20T10:35:41.816Z,96031.75
2022-10-20T10:38:15.197Z,96029.44
2022-10-20T10:40:51.666Z,96031.95
2022-10-20T10:43:40.188Z,96016.19
2022-10-20T10:46:31.037Z,96025.44
2022-10-20T10:49:02.614Z,96026.78
2022-10-20T10:51:34.265Z,96017.14
2022-10-20T10:54:25.992Z,96016.58
2022-10-20T10:57:07.958Z,96011.91
2022-10-20T10:59:39.131Z,96014.26
2022-10-20T11:02:38.223Z,96005.79
2022-10-20T11:05:27.756Z,96009.64
2022-10-20T11:08:24.892Z,96003.83
2022-10-20T11:11:21.050Z,96002.67
2022-10-20T11:13:52.583Z,95995.42
2022-10-20T11:16:39.155Z,95992.37
2022-10-20T11:19:16.583Z,95994.87
2022-10-20T11:22:11.843Z,95989.09
2022-10-20T11:24:54.212Z,95982.36
2022-10-20T11:27:25.757Z,95990.45
2022-10-20T11:30:02.331Z,95982.55
2022-10-20T11:33:00.840Z,95985.83
2022-10-20T11:35:48.861Z,95973.16
2022-10-20T11:38:22.965Z,95968.91
2022-10-20T11:40:57.365Z,95975.06
2022-10-20T11:43:30.570Z,95963.92
2022-10-20T11:46:04.795Z,95973.73
2022-10-20T11:48:45.447Z,95961.61
2022-10-20T11:51:34.881Z,95961.22
2022-10-20T11:54:31.960Z,95957.78
2022-10-20T11:57:21.683Z,95953.55
2022-10-20T12:00:05.694Z,95953.53
2022-10-20T12:02:54.024Z,95946.80
2022-10-20T12:05:42.305Z,95944.45
2022-10-20T12:08:38.275Z,95946.80
2022-10-20T12:11:18.982Z,95945.45
2022-10-20T12:14:06.879Z,95949.69
2022-10-20T12:16:58.435Z,95946.23
2022-10-20T12:19:32.736Z,95935.05
2022-10-20T12:22:16.371Z,95941.62
2022-10-20T12:24:53.759Z,95947.37
2022-10-20T12:27:27.821Z,95941.05
2022-10-20T12:30:15.668Z,95936.99
2022-10-20T12:33:01.027Z,95938.70
2022-10-20T12:35:32.036Z,95937.56
2022-10-20T12:38:04.285Z,95930.64
2022-10-20T12:40:57.919Z,95927.59
2022-10-20T12:43:35.369Z,95933.93
2022-10-20T12:46:09.943Z,95932.22
2022-10-20T12:48:43.998Z,95927.77
2022-10-20T12:51:24.551Z,95927.01
2022-10-20T12:54:05.749Z,95929.10
2022-10-20T12:56:40.306Z,95927.33
2022-10-20T12:59:24.239Z,95931.59
2022-10-20T13:02:15.434Z,95932.19
2022-10-20T13:05:20.696Z,95934.10
2022-10-20T13:07:59.709Z,95938.52
2022-10-20T13:10:42.488Z,95945.60
2022-10-20T13:13:15.624Z,95934.68
2022-10-20T13:18:45.658Z,95946.22
2022-10-20T13:21:23.742Z,95940.43
2022-10-20T13:24:07.296Z,95943.33
2022-10-20T13:26:42.564Z,95934.87
2022-10-20T13:29:22.984Z,95936.81
2022-10-20T13:32:17.540Z,95934.71
2022-10-20T13:34:53.733Z,95932.76
2022-10-20T13:37:45.156Z,95939.50
2022-10-20T13:40:25.730Z,95934.12
2022-10-20T13:43:03.710Z,95927.58
2022-10-20T13:45:47.245Z,95930.09
2022-10-20T13:48:35.833Z,95929.52
2022-10-20T13:51:07.606Z,95933.53
2022-10-20T13:53:44.248Z,95888.01
2022-10-20T13:56:23.607Z,95940.09
2022-10-20T13:59:08.937Z,95925.85
2022-10-20T14:01:38.399Z,95900.70
2022-10-20T14:04:35.962Z,95933.73
2022-10-20T14:08:23.423Z,95936.05
2022-10-20T14:09:54.684Z,95938.37
2022-10-20T14:12:26.354Z,95939.89
2022-10-20T14:15:02.080Z,95932.39
2022-10-20T14:17:31.101Z,95941.23
2022-10-20T14:20:22.079Z,95940.27
2022-10-20T14:22:53.701Z,95942.40
2022-10-20T14:25:24.463Z,95941.42
2022-10-20T14:27:54.310Z,95939.30
2022-10-20T14:30:24.299Z,95942.58
2022-10-20T14:32:56.380Z,95945.25
2022-10-20T14:35:33.742Z,95940.04
2022-10-20T14:38:12.988Z,95939.06
2022-10-20T14:40:41.897Z,95938.28
2022-10-20T14:43:33.271Z,95934.47
2022-10-20T14:46:03.825Z,95934.83
2022-10-20T14:48:38.245Z,95936.93
2022-10-20T14:51:40.581Z,95939.41
2022-10-20T14:54:26.777Z,95939.98
2022-10-20T14:57:02.395Z,95931.92
2022-10-20T14:59:34.792Z,95938.41
2022-10-20T15:02:20.931Z,95937.64
2022-10-20T15:04:52.391Z,95944.53
2022-10-20T15:07:35.764Z,95942.78
2022-10-20T15:10:10.402Z,95945.64
2022-10-20T15:12:45.357Z,95948.84
2022-10-20T15:15:56.733Z,95948.23
2022-10-20T15:18:25.639Z,95947.63
2022-10-20T15:20:55.979Z,95952.42
2022-10-20T15:23:27.679Z,95951.05
2022-10-20T15:26:08.363Z,95951.94
2022-10-20T15:28:48.269Z,95888.30
2022-10-20T15:31:22.975Z,95963.31
2022-10-20T15:33:53.005Z,95971.33
2022-10-20T15:36:25.484Z,95972.76
2022-10-20T15:38:54.444Z,95972.09
2022-10-20T15:41:26.504Z,95968.78
2022-10-20T15:43:55.304Z,95971.45
2022-10-20T15:46:24.579Z,95979.44
2022-10-20T15:48:56.185Z,95976.75
2022-10-20T15:51:35.734Z,95982.05
2022-10-20T15:54:04.514Z,95984.63
2022-10-20T15:56:34.068Z,95989.33
2022-10-20T15:59:12.704Z,95993.79
2022-10-20T16:01:41.453Z,95999.60
2022-10-20T16:04:19.237Z,96001.64
2022-10-20T16:06:48.081Z,96004.32
2022-10-20T16:09:16.745Z,96009.35
2022-10-20T16:11:46.225Z,96009.81
2022-10-20T16:14:16.883Z,96009.45
2022-10-20T16:16:45.831Z,96013.09
2022-10-20T16:19:14.487Z,96015.49
2022-10-20T16:21:45.902Z,96025.27
2022-10-20T16:24:14.552Z,96025.80
2022-10-20T16:26:43.221Z,96024.03
2022-10-20T16:29:11.882Z,96031.98
2022-10-20T16:31:40.571Z,96031.93
2022-10-20T16:34:09.176Z,96032.45
2022-10-20T16:36:38.634Z,96032.00
2022-10-20T16:39:07.211Z,96040.83
2022-10-20T16:41:35.926Z,96040.86
2022-10-20T16:44:06.008Z,96043.23
2022-10-20T16:46:34.673Z,96048.07
2022-10-20T16:49:05.288Z,96046.83
2022-10-20T16:51:34.223Z,96052.47
2022-10-20T16:54:03.412Z,96057.30
2022-10-20T16:56:32.392Z,96058.00
2022-10-20T16:59:01.970Z,96061.17
2022-10-20T17:01:31.913Z,96060.52
2022-10-20T17:04:04.877Z,96061.13
2022-10-20T17:06:33.446Z,96068.30
2022-10-20T17:09:05.271Z,96066.27
2022-10-20T17:11:34.764Z,96068.45
2022-10-20T17:14:03.493Z,96067.86
2022-10-20T17:16:34.452Z,96074.15
2022-10-20T17:19:03.923Z,96073.30
2022-10-20T17:21:34.294Z,96076.82
2022-10-20T17:24:14.853Z,96075.47
2022-10-20T17:26:43.850Z,96073.70
2022-10-20T17:29:12.738Z,96075.83
2022-10-20T17:31:41.497Z,96077.30
2022-10-20T17:34:10.979Z,96076.75
2022-10-20T17:36:39.617Z,96081.38
2022-10-20T17:39:12.401Z,96085.97
2022-10-20T17:41:40.977Z,96089.97
2022-10-20T17:44:10.479Z,96085.47
2022-10-20T17:46:42.267Z,96085.74
2022-10-20T17:49:10.907Z,96086.36
2022-10-20T17:51:39.468Z,96090.22
2022-10-20T17:54:10.183Z,96088.38
2022-10-20T17:56:40.436Z,96086.28
2022-10-20T17:59:09.480Z,96090.19
2022-10-20T18:01:41.313Z,96092.23
2022-10-20T18:04:13.051Z,96098.05
2022-10-20T18:06:43.047Z,96090.95
2022-10-20T18:09:14.425Z,96092.65
2022-10-20T18:11:45.954Z,96093.63
2022-10-20T18:14:14.960Z,96097.47
2022-10-20T18:16:44.001Z,96098.19
2022-10-20T18:19:18.378Z,96099.67
2022-10-20T18:21:47.580Z,96105.48
2022-10-20T18:24:18.299Z,96105.11
2022-10-20T18:26:47.827Z,96108.24
2022-10-20T18:29:18.749Z,96104.08
2022-10-20T18:31:50.538Z,96107.45
2022-10-20T18:34:25.128Z,96109.08
2022-10-20T18:36:56.459Z,96108.03
2022-10-20T18:39:44.493Z,96108.03
2022-10-20T18:42:14.175Z,96112.61
2022-10-20T18:44:42.740Z,96112.45
2022-10-20T18:47:11.701Z,96116.48
2022-10-20T18:49:43.129Z,96113.57
2022-10-20T18:52:11.690Z,96117.22
2022-10-20T18:54:40.433Z,96114.48
2022-10-20T18:57:09.101Z,96122.77
2022-10-20T18:59:40.811Z,96100.99
2022-10-20T19:02:12.830Z,96120.43
2022-10-20T19:04:41.517Z,96125.30
2022-10-20T19:07:13.244Z,96124.35
2022-10-20T19:09:41.968Z,96125.96
2022-10-20T19:12:13.293Z,96131.50
2022-10-20T19:14:41.986Z,96133.14
2022-10-20T19:17:10.746Z,96138.87
2022-10-20T19:19:43.667Z,96139.23
2022-10-20T19:22:12.248Z,96138.35
2022-10-20T19:24:43.468Z,96145.95
2022-10-20T19:27:26.225Z,96146.89
2022-10-20T19:29:42.496Z,96141.61
2022-10-20T19:32:12.131Z,96155.15
2022-10-20T19:34:42.214Z,96151.28
2022-10-20T19:37:11.238Z,96155.09
2022-10-20T19:39:42.612Z,96154.77
2022-10-20T19:42:12.254Z,96156.66
2022-10-20T19:44:41.658Z,96158.74
2022-10-20T19:47:18.224Z,96162.09
2022-10-20T19:49:47.853Z,96162.15
2022-10-20T19:52:17.965Z,96170.14
2022-10-20T19:54:46.714Z,96167.27
2022-10-20T19:57:16.779Z,96176.59
2022-10-20T19:59:47.158Z,96174.73
2022-10-20T20:02:16.076Z,96174.21
2022-10-20T20:04:47.564Z,96175.98
2022-10-20T20:07:20.601Z,96166.67
2022-10-20T20:09:51.691Z,96174.22
2022-10-20T20:12:21.722Z,96173.11
2022-10-20T20:15:10.962Z,96171.02
2022-10-20T20:17:52.433Z,96174.91
2022-10-20T20:20:30.303Z,96176.00
2022-10-20T20:23:06.187Z,96178.02
2022-10-20T20:25:42.509Z,96173.80
2022-10-20T20:28:17.244Z,96176.03
2022-10-20T20:31:02.516Z,96176.80
2022-10-20T20:33:49.455Z,96167.61
2022-10-20T20:36:14.057Z,96173.58
2022-10-20T20:38:43.065Z,96177.47
2022-10-20T20:41:32.445Z,96172.16
2022-10-20T20:43:54.185Z,96175.81
2022-10-20T20:46:30.369Z,96182.13
2022-10-20T20:49:01.486Z,96170.04
2022-10-20T20:51:33.632Z,96183.56
2022-10-20T20:54:11.036Z,96181.45
2022-10-20T20:56:41.382Z,96183.33
2022-10-20T20:59:10.214Z,96188.88
2022-10-20T21:01:46.760Z,96186.42
2022-10-20T21:04:17.427Z,96184.88
2022-10-20T21:07:01.848Z,96178.77
2022-10-20T21:09:18.073Z,96183.52
2022-10-20T21:11:49.133Z,96185.97
2022-10-20T21:14:20.078Z,96185.06
2022-10-20T21:16:48.641Z,96184.63
2022-10-20T21:19:17.388Z,96180.06
2022-10-20T21:21:50.078Z,96186.41
2022-10-20T21:24:19.715Z,96182.13
2022-10-20T21:26:48.893Z,96182.36
2022-10-20T21:29:17.713Z,96183.75
2022-10-20T21:31:46.318Z,96185.34
2022-10-20T21:34:17.895Z,96183.77
2022-10-20T21:36:46.441Z,96184.25
2022-10-20T21:39:16.365Z,96176.58
2022-10-20T21:41:46.732Z,96180.33
2022-10-20T21:44:15.523Z,96195.31
2022-10-20T21:46:47.998Z,96193.15
2022-10-20T21:49:19.622Z,96193.62
2022-10-20T21:51:50.659Z,96197.35
2022-10-20T21:54:22.399Z,96201.61
2022-10-20T21:56:51.352Z,96198.62
2022-10-20T21:59:30.683Z,96198.95
2022-10-20T22:02:01.982Z,96203.74
2022-10-20T22:04:40.314Z,96207.42
2022-10-20T22:07:08.894Z,96213.30
2022-10-20T22:09:39.208Z,96216.73
2022-10-20T22:12:07.896Z,96217.25
2022-10-20T22:14:36.641Z,96226.13
2022-10-20T22:17:06.910Z,96228.79
2022-10-20T22:19:35.644Z,96229.85
2022-10-20T22:22:04.325Z,96224.69
2022-10-20T22:24:35.806Z,96232.16
2022-10-20T22:27:15.502Z,96239.72
2022-10-20T22:29:39.414Z,96237.69
2022-10-20T22:32:11.106Z,96242.55
2022-10-20T22:34:39.847Z,96245.61
2022-10-20T22:37:08.555Z,96255.00
2022-10-20T22:39:38.739Z,96250.19
2022-10-20T22:42:09.065Z,96248.87
2022-10-20T22:44:37.834Z,96248.24
2022-10-20T22:47:07.977Z,96247.45
2022-10-20T22:49:37.470Z,96255.15
2022-10-20T22:52:06.164Z,96250.47
2022-10-20T22:54:34.825Z,96251.80
2022-10-20T22:57:03.460Z,96246.03
2022-10-20T23:00:21.183Z,96252.63
2022-10-20T23:02:51.501Z,96254.83
2022-10-20T23:05:21.395Z,96249.59
2022-10-20T23:07:49.973Z,96243.55
2022-10-20T23:10:24.501Z,96248.08
2022-10-20T23:12:53.026Z,96251.34
2022-10-20T23:15:21.675Z,96251.91
2022-10-20T23:17:50.331Z,96251.72
2022-10-20T23:20:21.609Z,96254.69
2022-10-20T23:22:50.526Z,96253.81
2022-10-20T23:25:22.184Z,96256.41
2022-10-20T23:27:50.865Z,96252.04
2022-10-20T23:30:19.617Z,96252.37
2022-10-20T23:32:48.444Z,96255.02
2022-10-20T23:35:17.223Z,96259.58
2022-10-20T23:37:47.614Z,96260.77
2022-10-20T23:40:16.399Z,96259.37
2022-10-20T23:42:46.856Z,96257.82
2022-10-20T23:45:15.803Z,96260.77
2022-10-20T23:47:44.608Z,96262.19
2022-10-20T23:50:14.052Z,96261.63
2022-10-20T23:52:45.195Z,96262.73
2022-10-20T23:55:18.599Z,96256.04
2022-10-20T23:57:49.772Z,96262.11
